Time;durP1;ratioP1;P1;durP2;ratioP2;P2;SDS_P1;SDS_P2;PMS_P1;PMS_P2;Temp;Humidity;BMP_temperature;BMP_pressure;BME280_temperature;BME280_humidity;BME280_pressure;Samples;Min_cycle;Max_cycle;Signal;HPM_P1;HPM_P2
2022/09/15 00:02:00;;;;;;;3.58;2.95;;;;;;;;;;4544117;28;20494;-68
2022/09/15 00:04:10;;;;;;;4.13;3.35;;;;;;;;;;4538028;28;20037;-68
2022/09/15 00:06:21;;;;;;;5.05;3.30;;;;;;;;;;4551648;28;20459;-69
2022/09/15 00:08:31;;;;;;;4.22;3.28;;;;;;;;;;4551345;28;20049;-68
2022/09/15 00:10:50;;;;;;;4.25;3.45;;;;;;;;;;4552192;28;20550;-69
2022/09/15 00:13:00;;;;;;;4.85;3.60;;;;;;;;;;4543579;28;20044;-68
2022/09/15 00:15:13;;;;;;;5.20;3.75;;;;;;;;;;4550865;28;20048;-68
2022/09/15 00:17:24;;;;;;;4.40;3.63;;;;;;;;;;4561147;28;20048;-68
2022/09/15 00:19:35;;;;;;;5.63;4.35;;;;;;;;;;4555257;28;20053;-67
2022/09/15 00:21:45;;;;;;;4.85;3.90;;;;;;;;;;4558275;28;20103;-68
2022/09/15 00:23:57;;;;;;;5.53;4.10;;;;;;;;;;4570018;28;20036;-68
2022/09/15 00:26:10;;;;;;;6.15;4.75;;;;;;;;;;4545439;28;21477;-69
2022/09/15 00:28:21;;;;;;;5.80;4.45;;;;;;;;;;4556740;28;20045;-68
2022/09/15 00:30:32;;;;;;;5.95;4.72;;;;;;;;;;4547015;28;20067;-67
2022/09/15 00:32:42;;;;;;;6.80;5.25;;;;;;;;;;4535956;28;26866;-69
2022/09/15 00:34:52;;;;;;;6.35;5.10;;;;;;;;;;4555177;28;20535;-68
2022/09/15 00:37:03;;;;;;;6.65;5.10;;;;;;;;;;4556447;28;20156;-68
2022/09/15 00:39:13;;;;;;;7.13;5.38;;;;;;;;;;4541183;28;20053;-69
2022/09/15 00:41:24;;;;;;;7.15;5.22;;;;;;;;;;4564171;28;20049;-69
2022/09/15 00:43:49;;;;;;;6.97;5.05;;;;;;;;;;4541012;28;20180;-67
2022/09/15 00:45:59;;;;;;;6.53;4.97;;;;;;;;;;4540832;28;20132;-67
2022/09/15 00:48:20;;;;;;;7.20;5.40;;;;;;;;;;4554001;28;20124;-67
2022/09/15 00:50:31;;;;;;;8.35;5.75;;;;;;;;;;4539163;28;20045;-67
2022/09/15 00:52:46;;;;;;;7.40;5.30;;;;;;;;;;4570720;28;20044;-67
2022/09/15 00:55:07;;;;;;;6.95;5.22;;;;;;;;;;4557598;28;20055;-67
2022/09/15 00:57:26;;;;;;;7.15;5.50;;;;;;;;;;4546612;28;20139;-68
2022/09/15 00:59:39;;;;;;;6.72;5.07;;;;;;;;;;4543945;28;20049;-67
2022/09/15 01:01:58;;;;;;;7.95;5.45;;;;;;;;;;4539689;28;20052;-68
2022/09/15 01:04:08;;;;;;;7.40;5.38;;;;;;;;;;4558769;28;20054;-67
2022/09/15 01:06:34;;;;;;;7.85;5.80;;;;;;;;;;4570813;28;20051;-67
2022/09/15 01:09:03;;;;;;;9.60;5.80;;;;;;;;;;4561967;28;20150;-67
2022/09/15 01:11:15;;;;;;;8.38;5.95;;;;;;;;;;4561102;28;21290;-67
2022/09/15 01:13:28;;;;;;;8.18;6.10;;;;;;;;;;4569620;28;20200;-69
2022/09/15 01:16:00;;;;;;;9.15;6.30;;;;;;;;;;4556107;28;20041;-67
2022/09/15 01:18:18;;;;;;;7.90;5.72;;;;;;;;;;4554056;28;20084;-68
2022/09/15 01:20:41;;;;;;;8.95;6.10;;;;;;;;;;4546283;28;20056;-68
2022/09/15 01:23:12;;;;;;;8.75;6.00;;;;;;;;;;4546318;28;20045;-68
2022/09/15 01:25:34;;;;;;;9.52;6.72;;;;;;;;;;4552764;28;20043;-67
2022/09/15 01:28:08;;;;;;;9.45;6.32;;;;;;;;;;4570537;28;20056;-66
2022/09/15 01:30:20;;;;;;;10.20;6.80;;;;;;;;;;4562297;28;20048;-67
2022/09/15 01:33:02;;;;;;;9.77;6.45;;;;;;;;;;4540488;28;20563;-67
2022/09/15 01:35:16;;;;;;;11.20;6.80;;;;;;;;;;4556592;28;20040;-67
2022/09/15 01:37:30;;;;;;;9.70;6.32;;;;;;;;;;4571046;28;20062;-67
2022/09/15 01:39:44;;;;;;;9.63;6.80;;;;;;;;;;4552622;28;20152;-67
2022/09/15 01:41:58;;;;;;;10.25;6.50;;;;;;;;;;4546855;28;20048;-67
2022/09/15 01:44:14;;;;;;;11.07;6.70;;;;;;;;;;4562623;28;20059;-68
2022/09/15 01:46:28;;;;;;;10.05;6.93;;;;;;;;;;4556619;28;20866;-67
2022/09/15 01:48:39;;;;;;;10.45;6.78;;;;;;;;;;4528810;28;20085;-67
2022/09/15 01:50:53;;;;;;;8.45;5.85;;;;;;;;;;4554991;28;20075;-67
2022/09/15 01:53:09;;;;;;;9.80;6.45;;;;;;;;;;4556913;28;20048;-67
2022/09/15 01:55:23;;;;;;;8.90;6.43;;;;;;;;;;4545785;28;20472;-67
2022/09/15 01:57:33;;;;;;;8.98;6.43;;;;;;;;;;4554319;28;20045;-67
2022/09/15 01:59:44;;;;;;;9.95;6.20;;;;;;;;;;4552464;28;20127;-67
2022/09/15 02:02:02;;;;;;;10.27;6.47;;;;;;;;;;4571374;28;20040;-67
2022/09/15 02:04:17;;;;;;;9.70;6.70;;;;;;;;;;4538968;28;20043;-68
2022/09/15 02:06:39;;;;;;;8.35;6.00;;;;;;;;;;4535631;28;20118;-68
2022/09/15 02:08:57;;;;;;;10.43;7.20;;;;;;;;;;4556726;28;20131;-67
2022/09/15 02:11:14;;;;;;;8.65;6.13;;;;;;;;;;4545520;28;20143;-68
2022/09/15 02:13:40;;;;;;;8.65;6.18;;;;;;;;;;4552213;28;20052;-68
2022/09/15 02:15:55;;;;;;;9.98;6.05;;;;;;;;;;4557411;28;20579;-68
2022/09/15 02:18:07;;;;;;;9.80;6.25;;;;;;;;;;4555752;28;20675;-68
2022/09/15 02:20:31;;;;;;;9.38;6.30;;;;;;;;;;4553391;28;20040;-68
2022/09/15 02:22:46;;;;;;;9.60;6.47;;;;;;;;;;4571724;28;20536;-68
2022/09/15 02:25:07;;;;;;;9.43;5.88;;;;;;;;;;4552863;28;20127;-67
2022/09/15 02:27:21;;;;;;;9.10;6.10;;;;;;;;;;4538383;28;20041;-68
2022/09/15 02:29:34;;;;;;;10.38;6.43;;;;;;;;;;4538901;28;20820;-68
2022/09/15 02:31:46;;;;;;;9.35;5.80;;;;;;;;;;4556522;28;20554;-68
2022/09/15 02:34:01;;;;;;;8.23;6.00;;;;;;;;;;4556033;28;20617;-68
2022/09/15 02:36:13;;;;;;;9.30;6.13;;;;;;;;;;4528324;28;20144;-68
2022/09/15 02:38:27;;;;;;;8.80;6.00;;;;;;;;;;4545100;28;20044;-68
2022/09/15 02:40:43;;;;;;;9.45;6.15;;;;;;;;;;4544951;28;20134;-68
2022/09/15 02:42:56;;;;;;;8.82;6.10;;;;;;;;;;4545142;28;20067;-69
2022/09/15 02:45:07;;;;;;;10.13;6.53;;;;;;;;;;4537227;28;20033;-69
2022/09/15 02:47:18;;;;;;;9.60;6.28;;;;;;;;;;4552743;28;20659;-68
2022/09/15 02:49:28;;;;;;;9.65;6.32;;;;;;;;;;4568959;28;20051;-68
2022/09/15 02:51:39;;;;;;;10.73;6.85;;;;;;;;;;4551180;28;20048;-68
2022/09/15 02:53:49;;;;;;;10.35;6.90;;;;;;;;;;4552491;28;20111;-68
2022/09/15 02:56:00;;;;;;;9.65;6.68;;;;;;;;;;4570085;28;20174;-68
2022/09/15 02:58:10;;;;;;;10.43;6.82;;;;;;;;;;4538341;28;20124;-69
2022/09/15 03:00:21;;;;;;;11.00;6.65;;;;;;;;;;4555509;28;20067;-69
2022/09/15 03:02:31;;;;;;;10.52;7.13;;;;;;;;;;4533348;28;20045;-68
2022/09/15 03:04:42;;;;;;;10.77;6.93;;;;;;;;;;4561805;28;20045;-69
2022/09/15 03:06:52;;;;;;;10.68;6.70;;;;;;;;;;4570400;28;28023;-68
2022/09/15 03:09:06;;;;;;;12.30;7.10;;;;;;;;;;4551722;28;20071;-68
2022/09/15 03:11:18;;;;;;;11.07;6.57;;;;;;;;;;4544252;28;20171;-69
2022/09/15 03:13:29;;;;;;;10.40;6.63;;;;;;;;;;4542428;28;20104;-68
2022/09/15 03:15:39;;;;;;;10.73;6.90;;;;;;;;;;4561716;28;20051;-68
2022/09/15 03:17:50;;;;;;;9.82;6.80;;;;;;;;;;4552371;28;20056;-68
2022/09/15 03:20:01;;;;;;;9.30;6.57;;;;;;;;;;4567180;28;20111;-68
2022/09/15 03:22:12;;;;;;;10.48;7.28;;;;;;;;;;4536796;28;20045;-68
2022/09/15 03:24:22;;;;;;;10.32;6.95;;;;;;;;;;4550518;28;20610;-68
2022/09/15 03:26:33;;;;;;;10.82;6.72;;;;;;;;;;4538515;28;28505;-69
2022/09/15 03:28:43;;;;;;;11.93;6.53;;;;;;;;;;4561846;28;20040;-67
2022/09/15 03:30:54;;;;;;;8.18;5.60;;;;;;;;;;4543521;28;20045;-67
2022/09/15 03:33:04;;;;;;;9.43;6.05;;;;;;;;;;4570185;28;20032;-68
2022/09/15 03:35:14;;;;;;;10.07;6.28;;;;;;;;;;4551141;28;20037;-69
2022/09/15 03:37:25;;;;;;;11.70;7.32;;;;;;;;;;4550646;28;20048;-67
2022/09/15 03:39:36;;;;;;;10.57;6.75;;;;;;;;;;4552790;28;20048;-67
2022/09/15 03:41:46;;;;;;;10.43;7.35;;;;;;;;;;4545740;28;20124;-67
2022/09/15 03:43:57;;;;;;;10.65;6.43;;;;;;;;;;4550705;28;20052;-68
2022/09/15 03:46:10;;;;;;;10.52;6.70;;;;;;;;;;4537268;28;20126;-68
2022/09/15 03:48:21;;;;;;;8.95;5.95;;;;;;;;;;4549905;28;20053;-68
2022/09/15 03:50:34;;;;;;;8.40;5.70;;;;;;;;;;4536175;28;20033;-67
2022/09/15 03:52:45;;;;;;;9.55;6.57;;;;;;;;;;4561981;28;20143;-68
2022/09/15 03:54:55;;;;;;;10.57;7.20;;;;;;;;;;4571054;28;20064;-68
2022/09/15 03:57:06;;;;;;;11.82;6.93;;;;;;;;;;4536327;28;20057;-68
2022/09/15 03:59:17;;;;;;;10.07;6.55;;;;;;;;;;4555004;28;21016;-68
2022/09/15 04:01:29;;;;;;;9.32;6.30;;;;;;;;;;4540711;28;20041;-68
2022/09/15 04:03:39;;;;;;;9.63;6.30;;;;;;;;;;4539611;28;20045;-68
2022/09/15 04:05:50;;;;;;;10.07;6.40;;;;;;;;;;4555452;28;20049;-67
2022/09/15 04:08:01;;;;;;;10.70;6.97;;;;;;;;;;4545624;28;20053;-67
2022/09/15 04:10:12;;;;;;;11.40;6.85;;;;;;;;;;4548502;28;20045;-67
2022/09/15 04:12:22;;;;;;;9.80;7.00;;;;;;;;;;4546405;28;20489;-68
2022/09/15 04:14:33;;;;;;;10.50;6.80;;;;;;;;;;4540396;28;20175;-68
2022/09/15 04:16:43;;;;;;;9.73;6.35;;;;;;;;;;4556568;28;20175;-68
2022/09/15 04:18:54;;;;;;;9.55;6.50;;;;;;;;;;4553511;28;20040;-68
2022/09/15 04:21:07;;;;;;;9.40;6.40;;;;;;;;;;4555636;28;20542;-68
2022/09/15 04:23:17;;;;;;;10.00;6.50;;;;;;;;;;4541844;28;20133;-68
2022/09/15 04:25:28;;;;;;;9.95;6.75;;;;;;;;;;4562976;28;20059;-68
2022/09/15 04:27:38;;;;;;;9.40;6.25;;;;;;;;;;4572120;28;20752;-68
2022/09/15 04:29:52;;;;;;;8.88;6.22;;;;;;;;;;4536800;28;20053;-68
2022/09/15 04:32:02;;;;;;;9.45;6.50;;;;;;;;;;4555403;28;20639;-69
2022/09/15 04:34:13;;;;;;;7.90;5.72;;;;;;;;;;4555247;28;20119;-67
2022/09/15 04:36:25;;;;;;;8.85;6.00;;;;;;;;;;4572727;28;20489;-67
2022/09/15 04:38:35;;;;;;;10.23;6.45;;;;;;;;;;4539990;28;20045;-68
2022/09/15 04:40:46;;;;;;;10.00;6.35;;;;;;;;;;4540155;28;20045;-68
2022/09/15 04:42:57;;;;;;;10.63;6.43;;;;;;;;;;4557523;28;29026;-67
2022/09/15 04:45:07;;;;;;;8.80;6.05;;;;;;;;;;4554793;28;20044;-68
2022/09/15 04:47:18;;;;;;;9.32;5.78;;;;;;;;;;4540195;28;20037;-68
2022/09/15 04:49:28;;;;;;;10.75;6.45;;;;;;;;;;4570024;28;20529;-69
2022/09/15 04:51:39;;;;;;;8.75;5.97;;;;;;;;;;4553197;28;20622;-68
2022/09/15 04:53:50;;;;;;;9.52;5.63;;;;;;;;;;4553138;28;20040;-68
2022/09/15 04:56:03;;;;;;;9.15;6.00;;;;;;;;;;4563493;28;20032;-68
2022/09/15 04:58:14;;;;;;;9.13;5.88;;;;;;;;;;4537619;28;20053;-68
2022/09/15 05:00:25;;;;;;;9.27;5.97;;;;;;;;;;4555251;28;20048;-67
2022/09/15 05:02:36;;;;;;;7.78;5.43;;;;;;;;;;4535975;28;20048;-69
2022/09/15 05:04:47;;;;;;;9.15;5.95;;;;;;;;;;4571050;28;20101;-68
2022/09/15 05:06:58;;;;;;;9.60;5.78;;;;;;;;;;4570424;28;20631;-68
2022/09/15 05:09:11;;;;;;;9.18;5.57;;;;;;;;;;4552730;28;30231;-67
2022/09/15 05:11:23;;;;;;;8.27;5.40;;;;;;;;;;4557039;28;20580;-68
2022/09/15 05:13:34;;;;;;;8.82;5.70;;;;;;;;;;4548454;28;20045;-68
2022/09/15 05:15:44;;;;;;;8.43;5.50;;;;;;;;;;4570191;28;20040;-67
2022/09/15 05:17:55;;;;;;;8.05;5.53;;;;;;;;;;4571832;28;20052;-68
2022/09/15 05:20:05;;;;;;;7.85;5.18;;;;;;;;;;4545601;28;20110;-69
2022/09/15 05:22:16;;;;;;;7.15;5.15;;;;;;;;;;4569984;28;20145;-69
2022/09/15 05:24:26;;;;;;;7.22;5.15;;;;;;;;;;4555811;28;24397;-67
2022/09/15 05:26:36;;;;;;;7.97;5.18;;;;;;;;;;4538780;28;20060;-68
2022/09/15 05:28:47;;;;;;;6.88;5.13;;;;;;;;;;4553377;28;23774;-68
2022/09/15 05:30:57;;;;;;;7.55;5.45;;;;;;;;;;4553635;28;20051;-68
2022/09/15 05:33:08;;;;;;;8.23;5.18;;;;;;;;;;4555187;28;20067;-68
2022/09/15 05:35:18;;;;;;;8.20;4.97;;;;;;;;;;4570482;28;20044;-68
2022/09/15 05:37:29;;;;;;;7.30;4.93;;;;;;;;;;4556112;28;20043;-69
2022/09/15 05:39:39;;;;;;;7.55;5.10;;;;;;;;;;4552377;28;20461;-70
2022/09/15 05:41:50;;;;;;;7.22;4.88;;;;;;;;;;4552837;28;20192;-68
2022/09/15 05:44:01;;;;;;;7.38;5.25;;;;;;;;;;4537657;28;20160;-67
2022/09/15 05:46:13;;;;;;;6.43;4.53;;;;;;;;;;4562378;28;20541;-66
2022/09/15 05:48:23;;;;;;;8.10;4.88;;;;;;;;;;4551914;28;20033;-67
2022/09/15 05:50:34;;;;;;;7.57;4.65;;;;;;;;;;4569653;28;20048;-67
2022/09/15 05:52:44;;;;;;;6.15;4.38;;;;;;;;;;4538823;28;20136;-67
2022/09/15 05:54:54;;;;;;;6.85;4.63;;;;;;;;;;4557178;28;20556;-67
2022/09/15 05:57:05;;;;;;;7.40;4.93;;;;;;;;;;4570932;28;20051;-67
2022/09/15 05:59:15;;;;;;;6.95;4.55;;;;;;;;;;4553909;28;20036;-68
2022/09/15 06:01:27;;;;;;;7.43;4.57;;;;;;;;;;4551299;28;20044;-67
2022/09/15 06:03:39;;;;;;;6.85;4.60;;;;;;;;;;4545493;28;20029;-68
2022/09/15 06:05:58;;;;;;;6.32;4.20;;;;;;;;;;4554527;28;20059;-68
2022/09/15 06:08:09;;;;;;;6.68;4.20;;;;;;;;;;4552993;28;20052;-68
2022/09/15 06:10:23;;;;;;;6.38;4.25;;;;;;;;;;4552445;28;20053;-68
2022/09/15 06:12:34;;;;;;;6.80;4.72;;;;;;;;;;4551522;28;20110;-68
2022/09/15 06:14:49;;;;;;;7.18;4.60;;;;;;;;;;4552039;28;20045;-69
2022/09/15 06:16:59;;;;;;;6.10;4.18;;;;;;;;;;4555142;28;20053;-68
2022/09/15 06:19:10;;;;;;;6.68;4.63;;;;;;;;;;4520755;28;28201;-68
2022/09/15 06:21:25;;;;;;;7.82;4.63;;;;;;;;;;4551399;28;20136;-68
2022/09/15 06:23:36;;;;;;;6.85;4.90;;;;;;;;;;4561038;28;20130;-68
2022/09/15 06:25:47;;;;;;;6.53;4.53;;;;;;;;;;4555715;28;20135;-68
2022/09/15 06:27:57;;;;;;;6.25;4.47;;;;;;;;;;4552036;28;20548;-68
2022/09/15 06:30:08;;;;;;;6.50;4.80;;;;;;;;;;4553993;28;20410;-69
2022/09/15 06:32:19;;;;;;;6.40;4.38;;;;;;;;;;4552331;28;20079;-68
2022/09/15 06:34:31;;;;;;;5.95;4.30;;;;;;;;;;4551385;28;20076;-68
2022/09/15 06:36:42;;;;;;;5.65;3.92;;;;;;;;;;4544739;28;20144;-68
2022/09/15 06:38:53;;;;;;;6.80;4.55;;;;;;;;;;4569338;28;20457;-68
2022/09/15 06:41:04;;;;;;;6.60;4.13;;;;;;;;;;4550714;28;20067;-68
2022/09/15 06:43:14;;;;;;;5.97;4.18;;;;;;;;;;4535504;28;20088;-69
2022/09/15 06:45:24;;;;;;;6.28;4.70;;;;;;;;;;4552430;28;20048;-68
2022/09/15 06:47:35;;;;;;;6.13;4.13;;;;;;;;;;4571208;28;20045;-68
2022/09/15 06:49:45;;;;;;;6.68;4.60;;;;;;;;;;4552933;28;20041;-69
2022/09/15 06:51:56;;;;;;;5.88;4.13;;;;;;;;;;4553307;28;20088;-67
2022/09/15 06:54:07;;;;;;;5.38;4.00;;;;;;;;;;4569713;28;20045;-67
2022/09/15 06:56:19;;;;;;;5.90;4.10;;;;;;;;;;4551268;28;20103;-68
2022/09/15 06:58:30;;;;;;;6.35;4.07;;;;;;;;;;4555074;28;20587;-68
2022/09/15 07:00:41;;;;;;;5.47;4.05;;;;;;;;;;4554326;28;20047;-69
2022/09/15 07:02:52;;;;;;;5.65;4.30;;;;;;;;;;4543492;28;20052;-69
2022/09/15 07:05:04;;;;;;;5.72;4.32;;;;;;;;;;4550275;28;20053;-69
2022/09/15 07:07:14;;;;;;;5.57;4.05;;;;;;;;;;4570464;28;20392;-68
2022/09/15 07:09:25;;;;;;;6.07;4.18;;;;;;;;;;4553921;28;20048;-68
2022/09/15 07:11:35;;;;;;;5.75;3.95;;;;;;;;;;4563213;28;20057;-68
2022/09/15 07:13:47;;;;;;;5.40;4.05;;;;;;;;;;4571202;28;20047;-68
2022/09/15 07:16:00;;;;;;;4.97;3.78;;;;;;;;;;4571205;28;20764;-68
2022/09/15 07:18:10;;;;;;;4.55;3.65;;;;;;;;;;4551643;28;20175;-68
2022/09/15 07:20:21;;;;;;;5.78;3.78;;;;;;;;;;4567221;28;20175;-68
2022/09/15 07:22:32;;;;;;;5.05;3.50;;;;;;;;;;4567386;28;20064;-68
2022/09/15 07:24:42;;;;;;;5.85;3.90;;;;;;;;;;4569277;28;20133;-68
2022/09/15 07:26:53;;;;;;;5.03;3.67;;;;;;;;;;4549991;28;20080;-69
2022/09/15 07:29:05;;;;;;;5.63;4.20;;;;;;;;;;4549891;28;20526;-68
2022/09/15 07:31:18;;;;;;;4.80;3.40;;;;;;;;;;4552614;28;20049;-68
2022/09/15 07:33:29;;;;;;;5.45;3.97;;;;;;;;;;4544026;28;20072;-69
2022/09/15 07:35:41;;;;;;;5.03;3.58;;;;;;;;;;4570663;28;20500;-69
2022/09/15 07:37:51;;;;;;;5.15;4.03;;;;;;;;;;4554473;28;20037;-69
2022/09/15 07:40:02;;;;;;;4.95;3.65;;;;;;;;;;4551246;28;20044;-69
2022/09/15 07:42:12;;;;;;;4.68;3.65;;;;;;;;;;4550231;28;20112;-69
2022/09/15 07:44:23;;;;;;;5.13;3.72;;;;;;;;;;4543040;28;20039;-69
2022/09/15 07:46:33;;;;;;;4.55;3.08;;;;;;;;;;4565870;28;20044;-69
2022/09/15 07:48:45;;;;;;;3.90;3.05;;;;;;;;;;4552057;28;20466;-69
2022/09/15 07:50:55;;;;;;;4.50;3.40;;;;;;;;;;4543858;28;20049;-69
2022/09/15 07:53:06;;;;;;;5.03;3.40;;;;;;;;;;4560590;28;20364;-69
2022/09/15 07:55:17;;;;;;;5.13;3.42;;;;;;;;;;4551182;28;21147;-69
2022/09/15 07:57:27;;;;;;;4.20;2.90;;;;;;;;;;4549801;28;20072;-69
2022/09/15 07:59:38;;;;;;;4.45;3.03;;;;;;;;;;4535969;28;20041;-69
2022/09/15 08:01:49;;;;;;;4.57;3.15;;;;;;;;;;4567590;28;20047;-69
2022/09/15 08:04:00;;;;;;;4.15;2.97;;;;;;;;;;4551710;28;20060;-69
2022/09/15 08:06:11;;;;;;;4.15;2.90;;;;;;;;;;4550237;28;20412;-69
2022/09/15 08:08:22;;;;;;;3.70;2.90;;;;;;;;;;4550360;28;20130;-70
2022/09/15 08:10:32;;;;;;;4.13;2.90;;;;;;;;;;4568121;28;20048;-69
2022/09/15 08:12:43;;;;;;;3.92;2.90;;;;;;;;;;4552816;28;20049;-69
2022/09/15 08:14:53;;;;;;;3.85;2.58;;;;;;;;;;4551059;28;20507;-69
2022/09/15 08:17:04;;;;;;;3.35;2.20;;;;;;;;;;4566741;28;20087;-69
2022/09/15 08:19:14;;;;;;;3.20;2.60;;;;;;;;;;4551076;28;20480;-69
2022/09/15 08:21:26;;;;;;;3.47;2.63;;;;;;;;;;4533634;28;20101;-69
2022/09/15 08:23:37;;;;;;;2.92;2.30;;;;;;;;;;4560884;28;20614;-69
2022/09/15 08:25:50;;;;;;;3.30;2.47;;;;;;;;;;4551219;28;20036;-69
2022/09/15 08:28:00;;;;;;;3.45;2.58;;;;;;;;;;4560586;28;20492;-68
2022/09/15 08:30:11;;;;;;;3.60;2.60;;;;;;;;;;4569376;28;20044;-70
2022/09/15 08:32:22;;;;;;;2.97;2.25;;;;;;;;;;4551191;28;20039;-70
2022/09/15 08:34:33;;;;;;;3.28;2.10;;;;;;;;;;4556211;28;20049;-70
2022/09/15 08:36:48;;;;;;;3.72;2.47;;;;;;;;;;4560897;28;20072;-70
2022/09/15 08:38:59;;;;;;;4.10;2.50;;;;;;;;;;4570154;28;20113;-70
2022/09/15 08:41:18;;;;;;;3.00;2.13;;;;;;;;;;4532479;28;20101;-70
2022/09/15 08:43:35;;;;;;;3.03;2.03;;;;;;;;;;4547725;28;20045;-69
2022/09/15 08:45:51;;;;;;;3.55;2.10;;;;;;;;;;4559558;28;20048;-69
2022/09/15 08:48:03;;;;;;;2.80;2.20;;;;;;;;;;4555466;28;20556;-70
2022/09/15 08:50:23;;;;;;;3.03;2.17;;;;;;;;;;4572396;28;20267;-69
2022/09/15 08:52:45;;;;;;;2.97;1.85;;;;;;;;;;4564507;28;20056;-69
2022/09/15 08:54:57;;;;;;;3.30;2.00;;;;;;;;;;4559227;28;20092;-70
2022/09/15 08:57:10;;;;;;;2.80;1.85;;;;;;;;;;4541404;28;20029;-70
2022/09/15 08:59:20;;;;;;;3.17;2.20;;;;;;;;;;4563604;28;20055;-70
2022/09/15 09:01:56;;;;;;;3.17;1.85;;;;;;;;;;4556227;28;20060;-70
2022/09/15 09:04:18;;;;;;;3.10;2.00;;;;;;;;;;4555825;28;20537;-70
2022/09/15 09:07:00;;;;;;;3.13;2.00;;;;;;;;;;4556065;28;20583;-68
2022/09/15 09:09:10;;;;;;;2.67;2.00;;;;;;;;;;4557057;28;20048;-68
2022/09/15 09:11:32;;;;;;;2.85;1.95;;;;;;;;;;4570295;28;20390;-67
2022/09/15 09:13:58;;;;;;;3.28;1.77;;;;;;;;;;4572030;28;20040;-68
2022/09/15 09:16:40;;;;;;;3.17;1.67;;;;;;;;;;4568729;28;20052;-68
2022/09/15 09:19:21;;;;;;;3.03;1.70;;;;;;;;;;4554237;28;20146;-68
2022/09/15 09:21:34;;;;;;;2.15;1.40;;;;;;;;;;4555971;28;20048;-69
2022/09/15 09:23:51;;;;;;;2.95;1.50;;;;;;;;;;4569996;28;20643;-69
2022/09/15 09:26:02;;;;;;;2.65;1.70;;;;;;;;;;4559576;28;20049;-69
2022/09/15 09:28:30;;;;;;;3.13;1.70;;;;;;;;;;4545208;28;20675;-70
2022/09/15 09:30:41;;;;;;;1.85;1.05;;;;;;;;;;4573188;28;20048;-71
2022/09/15 09:32:54;;;;;;;2.63;1.00;;;;;;;;;;4552155;28;20045;-71
2022/09/15 09:35:23;;;;;;;1.77;1.10;;;;;;;;;;4567631;28;20040;-69
2022/09/15 09:37:34;;;;;;;1.70;1.20;;;;;;;;;;4557307;28;20096;-69
2022/09/15 09:39:46;;;;;;;1.63;1.20;;;;;;;;;;4553672;28;20106;-68
2022/09/15 09:41:58;;;;;;;2.13;1.20;;;;;;;;;;4570122;28;20036;-68
2022/09/15 09:44:11;;;;;;;1.92;1.30;;;;;;;;;;4561875;28;20051;-69
2022/09/15 09:46:22;;;;;;;2.28;1.50;;;;;;;;;;4545585;28;20048;-69
2022/09/15 09:48:33;;;;;;;1.70;1.00;;;;;;;;;;4572721;28;20051;-69
2022/09/15 09:50:44;;;;;;;3.20;1.13;;;;;;;;;;4553641;28;20777;-69
2022/09/15 09:52:54;;;;;;;2.05;1.13;;;;;;;;;;4552631;28;20032;-69
2022/09/15 09:55:22;;;;;;;2.03;1.10;;;;;;;;;;4570758;28;20110;-69
2022/09/15 09:57:35;;;;;;;1.60;1.00;;;;;;;;;;4570984;28;20044;-68
2022/09/15 09:59:48;;;;;;;1.45;0.98;;;;;;;;;;4568230;28;21032;-69
2022/09/15 10:02:20;;;;;;;1.25;0.90;;;;;;;;;;4561752;28;20593;-69
2022/09/15 10:04:31;;;;;;;2.42;1.00;;;;;;;;;;4569976;28;20040;-72
2022/09/15 10:06:41;;;;;;;1.50;0.85;;;;;;;;;;4569972;28;20048;-69
2022/09/15 10:08:57;;;;;;;1.80;0.90;;;;;;;;;;4570073;28;20043;-69
2022/09/15 10:11:09;;;;;;;1.10;0.70;;;;;;;;;;4552460;28;20037;-69
2022/09/15 10:13:20;;;;;;;2.58;0.75;;;;;;;;;;4553190;28;20224;-69
2022/09/15 10:15:32;;;;;;;1.88;0.93;;;;;;;;;;4553532;28;20064;-69
2022/09/15 10:17:44;;;;;;;0.93;0.68;;;;;;;;;;4555339;28;20047;-70
2022/09/15 10:19:56;;;;;;;1.02;0.77;;;;;;;;;;4569515;28;20623;-69
2022/09/15 10:22:07;;;;;;;0.88;0.68;;;;;;;;;;4554296;28;20051;-69
2022/09/15 10:24:31;;;;;;;2.38;0.70;;;;;;;;;;4538277;28;20493;-69
2022/09/15 10:26:43;;;;;;;0.70;0.60;;;;;;;;;;4553090;28;20055;-69
2022/09/15 10:29:13;;;;;;;1.02;0.60;;;;;;;;;;4570191;28;20048;-69
2022/09/15 10:31:27;;;;;;;1.55;0.60;;;;;;;;;;4562275;28;20045;-69
2022/09/15 10:33:40;;;;;;;1.40;0.70;;;;;;;;;;4557268;28;20033;-70
2022/09/15 10:35:52;;;;;;;1.65;0.80;;;;;;;;;;4552695;28;20130;-70
2022/09/15 10:38:10;;;;;;;2.17;0.60;;;;;;;;;;4550885;28;20156;-70
2022/09/15 10:40:48;;;;;;;1.50;0.57;;;;;;;;;;4568661;28;20151;-71
2022/09/15 10:43:23;;;;;;;0.88;0.60;;;;;;;;;;4569557;28;20047;-72
2022/09/15 10:45:38;;;;;;;1.05;0.55;;;;;;;;;;4553713;28;20044;-71
2022/09/15 10:48:15;;;;;;;2.05;0.93;;;;;;;;;;4554560;28;20052;-71
2022/09/15 10:50:25;;;;;;;1.25;0.68;;;;;;;;;;4544802;28;20605;-71
2022/09/15 10:52:45;;;;;;;0.82;0.50;;;;;;;;;;4555723;28;20064;-71
2022/09/15 10:55:17;;;;;;;0.85;0.45;;;;;;;;;;4569545;28;20040;-71
2022/09/15 10:57:33;;;;;;;1.40;0.60;;;;;;;;;;4569783;28;20557;-71
2022/09/15 10:59:58;;;;;;;1.45;0.60;;;;;;;;;;4569480;28;20036;-72
2022/09/15 11:02:36;;;;;;;1.90;0.47;;;;;;;;;;4537613;28;20102;-72
2022/09/15 11:04:55;;;;;;;;;;;;;;;;;;4556040;28;20131;-71
2022/09/15 11:07:21;;;;;;;1.40;0.60;;;;;;;;;;4570056;28;19967;-70
2022/09/15 11:09:32;;;;;;;2.08;0.60;;;;;;;;;;4552205;28;20048;-70
2022/09/15 11:12:21;;;;;;;1.00;0.40;;;;;;;;;;4561719;28;20608;-70
2022/09/15 11:14:43;;;;;;;1.02;0.50;;;;;;;;;;4554818;28;20076;-72
2022/09/15 11:17:24;;;;;;;0.75;0.50;;;;;;;;;;4556298;28;20083;-71
2022/09/15 11:20:01;;;;;;;1.25;0.50;;;;;;;;;;4569674;28;20610;-71
2022/09/15 11:22:33;;;;;;;0.68;0.40;;;;;;;;;;4555815;28;20044;-71
2022/09/15 11:25:22;;;;;;;0.85;0.55;;;;;;;;;;4556153;28;20059;-72
2022/09/15 11:27:41;;;;;;;1.63;0.52;;;;;;;;;;4533994;28;20080;-71
2022/09/15 11:29:59;;;;;;;1.15;0.60;;;;;;;;;;4554912;28;20640;-71
2022/09/15 11:32:14;;;;;;;1.08;0.32;;;;;;;;;;4569232;28;20511;-70
2022/09/15 11:34:35;;;;;;;0.98;0.40;;;;;;;;;;4539108;28;20099;-70
2022/09/15 11:37:09;;;;;;;0.80;0.47;;;;;;;;;;4550842;28;20039;-70
2022/09/15 11:39:27;;;;;;;1.13;0.50;;;;;;;;;;4550850;28;20084;-70
2022/09/15 11:41:55;;;;;;;1.25;0.40;;;;;;;;;;4552380;28;20068;-70
2022/09/15 11:44:31;;;;;;;1.90;0.43;;;;;;;;;;4555923;28;20170;-69
2022/09/15 11:47:06;;;;;;;1.45;0.60;;;;;;;;;;4558479;28;20045;-70
2022/09/15 11:49:20;;;;;;;1.08;0.50;;;;;;;;;;4535509;28;21397;-71
2022/09/15 11:51:36;;;;;;;0.73;0.40;;;;;;;;;;4568847;28;20520;-70
2022/09/15 11:53:47;;;;;;;1.50;0.40;;;;;;;;;;4551701;28;20152;-70
2022/09/15 11:56:14;;;;;;;1.77;0.40;;;;;;;;;;4569025;28;20044;-70
2022/09/15 11:58:27;;;;;;;;;;;;;;;;;;4561931;28;20056;-70
2022/09/15 12:00:42;;;;;;;1.38;0.30;;;;;;;;;;4552420;28;19971;-71
2022/09/15 12:03:24;;;;;;;0.60;0.40;;;;;;;;;;4551607;28;20049;-73
2022/09/15 12:05:39;;;;;;;0.40;0.30;;;;;;;;;;4565218;28;20056;-71
2022/09/15 12:07:55;;;;;;;0.55;0.40;;;;;;;;;;4520046;28;20037;-71
2022/09/15 12:10:19;;;;;;;0.65;0.30;;;;;;;;;;4551081;28;20780;-71
2022/09/15 12:12:30;;;;;;;0.47;0.20;;;;;;;;;;4544024;28;20866;-70
2022/09/15 12:14:43;;;;;;;0.28;0.10;;;;;;;;;;4553510;28;20059;-70
2022/09/15 12:16:54;;;;;;;0.90;0.30;;;;;;;;;;4570902;28;20048;-71
2022/09/15 12:19:21;;;;;;;0.40;0.20;;;;;;;;;;4558055;28;20048;-73
2022/09/15 12:22:00;;;;;;;1.45;0.30;;;;;;;;;;4570447;28;20142;-70
2022/09/15 12:24:26;;;;;;;0.80;0.22;;;;;;;;;;4552169;28;20581;-71
2022/09/15 12:26:37;;;;;;;0.20;0.20;;;;;;;;;;4553989;28;20055;-70
2022/09/15 12:28:53;;;;;;;0.80;0.22;;;;;;;;;;4555613;28;20044;-71
2022/09/15 12:31:22;;;;;;;0.20;0.15;;;;;;;;;;4556945;28;20044;-71
2022/09/15 12:33:44;;;;;;;0.90;0.30;;;;;;;;;;4572814;28;20040;-71
2022/09/15 12:35:54;;;;;;;0.98;0.30;;;;;;;;;;4572945;28;20791;-71
2022/09/15 12:38:11;;;;;;;0.52;0.20;;;;;;;;;;4539816;28;20045;-71
2022/09/15 12:40:35;;;;;;;0.20;0.10;;;;;;;;;;4541261;28;20199;-71
2022/09/15 12:42:46;;;;;;;0.57;0.25;;;;;;;;;;4552621;28;20053;-71
2022/09/15 12:45:02;;;;;;;0.50;0.30;;;;;;;;;;4555883;28;20380;-71
2022/09/15 12:47:33;;;;;;;0.40;0.20;;;;;;;;;;4556253;28;20585;-72
2022/09/15 12:49:45;;;;;;;1.13;0.28;;;;;;;;;;4571361;28;20947;-72
2022/09/15 12:51:56;;;;;;;0.75;0.28;;;;;;;;;;4558017;28;20064;-70
2022/09/15 12:54:21;;;;;;;1.00;0.32;;;;;;;;;;4540527;28;20095;-71
2022/09/15 12:56:32;;;;;;;0.30;0.20;;;;;;;;;;4538287;28;20044;-72
2022/09/15 12:58:48;;;;;;;1.20;0.30;;;;;;;;;;4539800;28;20095;-71
2022/09/15 13:01:16;;;;;;;0.65;0.20;;;;;;;;;;4573302;28;20518;-70
2022/09/15 13:03:36;;;;;;;0.45;0.30;;;;;;;;;;4573300;28;20139;-71
2022/09/15 13:05:46;;;;;;;0.50;0.20;;;;;;;;;;4570922;28;20050;-72
2022/09/15 13:07:57;;;;;;;0.15;0.10;;;;;;;;;;4572174;28;20050;-70
2022/09/15 13:10:07;;;;;;;0.25;0.20;;;;;;;;;;4555090;28;20044;-71
2022/09/15 13:12:18;;;;;;;0.75;0.20;;;;;;;;;;4572795;28;20135;-73
2022/09/15 13:14:35;;;;;;;0.45;0.20;;;;;;;;;;4554882;28;20564;-70
2022/09/15 13:17:06;;;;;;;1.17;0.47;;;;;;;;;;4551492;28;20888;-71
2022/09/15 13:19:39;;;;;;;0.50;0.20;;;;;;;;;;4553680;28;20059;-71
2022/09/15 13:22:08;;;;;;;0.30;0.20;;;;;;;;;;4563924;28;20655;-71
2022/09/15 13:24:34;;;;;;;0.77;0.20;;;;;;;;;;4551240;28;20045;-70
2022/09/15 13:26:49;;;;;;;0.38;0.20;;;;;;;;;;4553983;28;20045;-73
2022/09/15 13:28:59;;;;;;;0.40;0.30;;;;;;;;;;4553420;28;20139;-73
2022/09/15 13:31:26;;;;;;;0.45;0.28;;;;;;;;;;4552607;28;20120;-70